Ansonia, Pennsylvania
Current Conditions -  °F | °C
As of 3:55 PM on Friday 31 Oct 2014 (Local Time) from KN38 Reporting Station
Overcast Overcast  
Wind Chill: 43°   Ceiling: 4400
Heat Index: 43°   Visibility: 10mi
Dew Point: 32°   Wind: 3mph
Humidity: 66%   Direction: 200°SSW
Pressure: 29.89"   Gusts: NA
Location:  41.7308°N, 77.349°W
Report Text: KN38 311955Z AUTO 20003KT 10SM OVC044 06/00 A2989 RMK AO2
Loading
Personal Weather Stations






























Interactive Weather Map
Tropical Storm Tracking
New forecast layout! Learn more

10-Day Weather Forecast

Advertisements
Track Severe Weather on mobile